createdAt,value
2022-09-20T00:01:08.201Z,8.90
2022-09-20T00:03:45.445Z,6.70
2022-09-20T00:06:20.027Z,6.70
2022-09-20T00:08:47.063Z,6.70
2022-09-20T00:11:18.664Z,6.70
2022-09-20T00:13:46.283Z,6.70
2022-09-20T00:16:15.094Z,7.90
2022-09-20T00:18:42.012Z,6.60
2022-09-20T00:21:18.918Z,7.30
2022-09-20T00:23:45.726Z,6.70
2022-09-20T00:26:13.928Z,7.20
2022-09-20T00:28:41.561Z,8.50
2022-09-20T00:31:08.364Z,9.60
2022-09-20T00:33:53.892Z,6.60
2022-09-20T00:36:20.674Z,8.00
2022-09-20T00:38:47.554Z,9.50
2022-09-20T00:41:14.314Z,8.90
2022-09-20T00:43:43.098Z,6.30
2022-09-20T00:46:37.664Z,8.40
2022-09-20T00:49:26.454Z,8.10
2022-09-20T00:51:56.509Z,8.90
2022-09-20T00:54:23.704Z,9.40
2022-09-20T00:56:50.609Z,8.50
2022-09-20T00:59:32.806Z,6.50
2022-09-20T01:02:09.209Z,6.50
2022-09-20T01:04:36.511Z,6.50
2022-09-20T01:07:03.545Z,8.40
2022-09-20T01:09:30.403Z,8.90
2022-09-20T01:11:57.489Z,7.80
2022-09-20T01:14:25.466Z,7.30
2022-09-20T01:16:53.917Z,9.40
2022-09-20T01:19:42.262Z,6.40
2022-09-20T01:22:15.883Z,6.40
2022-09-20T01:24:47.825Z,8.00
2022-09-20T01:27:40.693Z,8.60
2022-09-20T01:30:09.420Z,8.30
2022-09-20T01:33:02.415Z,6.30
2022-09-20T01:35:30.149Z,6.30
2022-09-20T01:38:34.508Z,8.50
2022-09-20T01:41:07.053Z,7.90
2022-09-20T01:43:41.118Z,6.30
2022-09-20T01:46:20.080Z,7.70
2022-09-20T01:48:46.911Z,8.40
2022-09-20T01:51:31.948Z,7.60
2022-09-20T01:54:20.192Z,6.30
2022-09-20T01:56:52.127Z,6.20
2022-09-20T01:59:38.497Z,7.80
2022-09-20T02:02:52.688Z,6.20
2022-09-20T02:05:39.463Z,6.20
2022-09-20T02:08:29.363Z,6.20
2022-09-20T02:11:17.303Z,6.20
2022-09-20T02:14:29.308Z,6.10
2022-09-20T02:16:57.156Z,6.10
2022-09-20T02:19:34.473Z,6.80
2022-09-20T02:22:11.299Z,6.00
2022-09-20T02:25:09.603Z,6.10
2022-09-20T02:28:07.390Z,6.10
2022-09-20T02:31:02.752Z,6.10
2022-09-20T02:33:45.655Z,6.10
2022-09-20T02:36:31.243Z,6.10
2022-09-20T02:39:18.489Z,6.10
2022-09-20T02:41:52.848Z,6.10
2022-09-20T02:44:26.286Z,7.30
2022-09-20T02:46:52.999Z,6.00
2022-09-20T02:49:45.735Z,6.00
2022-09-20T02:52:33.006Z,6.00
2022-09-20T02:55:08.243Z,5.90
2022-09-20T02:58:11.333Z,5.90
2022-09-20T03:01:02.386Z,5.80
2022-09-20T03:03:47.880Z,5.80
2022-09-20T03:06:36.816Z,5.80
2022-09-20T03:09:33.948Z,5.80
2022-09-20T03:12:32.897Z,5.80
2022-09-20T03:15:05.157Z,5.80
2022-09-20T03:17:51.946Z,5.80
2022-09-20T03:20:32.341Z,5.80
2022-09-20T03:23:08.908Z,5.80
2022-09-20T03:25:48.157Z,6.80
2022-09-20T03:28:20.724Z,5.70
2022-09-20T03:31:06.359Z,5.70
2022-09-20T03:33:45.762Z,4.10
2022-09-20T03:36:46.683Z,5.70
2022-09-20T03:39:38.566Z,5.80
2022-09-20T03:42:26.976Z,5.70
2022-09-20T03:45:33.685Z,5.70
2022-09-20T03:48:09.682Z,5.70
2022-09-20T03:50:42.550Z,5.70
2022-09-20T03:53:18.582Z,5.70
2022-09-20T03:56:19.208Z,5.70
2022-09-20T03:59:10.840Z,5.70
2022-09-20T04:01:49.473Z,5.70
2022-09-20T04:04:34.842Z,5.70
2022-09-20T04:07:35.794Z,5.70
2022-09-20T04:10:16.220Z,5.70
2022-09-20T04:12:46.223Z,5.70
2022-09-20T04:15:13.061Z,6.20
2022-09-20T04:18:10.016Z,5.70
2022-09-20T04:20:48.296Z,5.70
2022-09-20T04:23:31.899Z,5.70
2022-09-20T04:25:59.220Z,5.70
2022-09-20T04:28:28.963Z,7.90
2022-09-20T04:31:05.574Z,5.70
2022-09-20T04:33:38.830Z,5.70
2022-09-20T04:36:30.282Z,6.00
2022-09-20T04:39:03.096Z,8.70
2022-09-20T04:41:55.943Z,5.60
2022-09-20T04:44:41.624Z,5.60
2022-09-20T04:47:36.341Z,6.90
2022-09-20T04:50:12.574Z,5.60
2022-09-20T04:53:14.707Z,5.60
2022-09-20T04:55:47.386Z,5.60
2022-09-20T04:58:37.453Z,5.60
2022-09-20T05:01:19.683Z,5.60
2022-09-20T05:04:21.021Z,7.10
2022-09-20T05:06:59.881Z,5.60
2022-09-20T05:09:33.575Z,5.60
2022-09-20T05:12:28.169Z,7.20
2022-09-20T05:15:08.654Z,5.60
2022-09-20T05:18:02.953Z,5.60
2022-09-20T05:20:59.458Z,5.60
2022-09-20T05:23:35.244Z,5.60
2022-09-20T05:26:03.691Z,5.60
2022-09-20T05:29:02.509Z,7.40
2022-09-20T05:31:42.915Z,5.60
2022-09-20T05:34:42.516Z,5.60
2022-09-20T05:37:33.985Z,5.60
2022-09-20T05:40:13.178Z,5.70
2022-09-20T05:42:42.231Z,5.70
2022-09-20T05:45:30.852Z,8.20
2022-09-20T05:48:10.355Z,5.70
2022-09-20T05:50:59.534Z,5.60
2022-09-20T05:53:46.780Z,6.90
2022-09-20T05:56:32.258Z,5.70
2022-09-20T05:59:14.091Z,5.80
2022-09-20T06:01:55.705Z,5.70
2022-09-20T06:04:25.152Z,5.70
2022-09-20T06:07:05.960Z,7.40
2022-09-20T06:10:17.439Z,5.80
2022-09-20T06:12:59.110Z,5.80
2022-09-20T06:15:28.951Z,7.20
2022-09-20T06:18:16.362Z,7.40
2022-09-20T06:21:02.125Z,5.80
2022-09-20T06:23:28.957Z,8.60
2022-09-20T06:26:06.566Z,7.90
2022-09-20T06:28:35.043Z,5.80
2022-09-20T06:34:13.725Z,7.90
2022-09-20T06:37:03.200Z,6.00
2022-09-20T06:40:06.448Z,6.00
2022-09-20T06:42:33.265Z,6.10
2022-09-20T06:45:00.107Z,6.10
2022-09-20T06:47:27.095Z,8.20
2022-09-20T06:49:53.952Z,6.20
2022-09-20T06:52:21.505Z,7.20
2022-09-20T06:54:50.145Z,6.30
2022-09-20T06:57:27.411Z,7.90
2022-09-20T06:59:54.223Z,6.50
2022-09-20T07:02:21.102Z,9.40
2022-09-20T07:04:48.002Z,8.60
2022-09-20T07:07:20.154Z,8.30
2022-09-20T07:09:47.580Z,7.00
2022-09-20T07:12:14.391Z,7.10
2022-09-20T07:14:41.675Z,9.10
2022-09-20T07:17:08.658Z,7.40
2022-09-20T07:19:36.750Z,9.60
2022-09-20T07:22:03.579Z,7.80
2022-09-20T07:24:32.324Z,7.90
2022-09-20T07:27:03.171Z,8.90
2022-09-20T07:29:30.227Z,8.30
2022-09-20T07:31:57.212Z,10.70
2022-09-20T07:34:24.326Z,9.90
2022-09-20T07:36:51.386Z,8.80
2022-09-20T07:39:18.610Z,8.90
2022-09-20T07:41:48.558Z,11.20
2022-09-20T07:44:22.144Z,9.90
2022-09-20T07:46:52.566Z,11.20
2022-09-20T07:49:19.693Z,12.10
2022-09-20T07:51:46.668Z,11.80
2022-09-20T07:54:13.537Z,11.40
2022-09-20T07:56:40.573Z,10.50
2022-09-20T07:59:07.562Z,12.50
2022-09-20T08:01:35.044Z,12.30
2022-09-20T08:04:02.107Z,10.70
2022-09-20T08:06:28.923Z,10.90
2022-09-20T08:08:55.915Z,12.30
2022-09-20T08:11:27.887Z,13.30
2022-09-20T08:14:11.315Z,11.30
2022-09-20T08:16:41.915Z,11.50
2022-09-20T08:19:09.044Z,11.90
2022-09-20T08:21:38.046Z,11.60
2022-09-20T08:24:05.085Z,11.60
2022-09-20T08:26:31.919Z,11.70
2022-09-20T08:28:59.609Z,13.10
2022-09-20T08:31:28.114Z,12.20
2022-09-20T08:33:55.133Z,12.00
2022-09-20T08:36:24.437Z,13.00
2022-09-20T08:42:05.855Z,12.30
2022-09-20T08:44:45.429Z,12.50
2022-09-20T08:47:23.119Z,12.70
2022-09-20T08:49:56.967Z,12.70
2022-09-20T08:52:37.089Z,12.70
2022-09-20T08:55:16.890Z,12.90
2022-09-20T08:57:44.696Z,12.80
2022-09-20T09:00:17.688Z,12.90
2022-09-20T09:02:44.733Z,13.00
2022-09-20T09:05:45.981Z,13.10
2022-09-20T09:08:16.590Z,13.30
2022-09-20T09:10:54.790Z,13.40
2022-09-20T09:13:33.288Z,13.50
2022-09-20T09:16:02.999Z,13.70
2022-09-20T09:18:35.450Z,13.90
2022-09-20T09:21:05.099Z,14.80
2022-09-20T09:23:41.752Z,14.80
2022-09-20T09:26:17.504Z,14.10
2022-09-20T09:28:44.340Z,14.30
2022-09-20T09:31:23.682Z,14.50
2022-09-20T09:33:50.628Z,14.40
2022-09-20T09:36:22.667Z,14.60
2022-09-20T09:38:49.873Z,14.70
2022-09-20T09:41:29.963Z,14.90
2022-09-20T09:44:09.693Z,15.00
2022-09-20T09:46:38.359Z,15.00
2022-09-20T09:49:16.965Z,15.10
2022-09-20T09:52:06.660Z,15.20
2022-09-20T09:54:39.437Z,15.30
2022-09-20T09:57:33.087Z,15.50
2022-09-20T10:00:22.324Z,15.40
2022-09-20T10:03:10.874Z,15.40
2022-09-20T10:06:17.483Z,15.40
2022-09-20T10:09:14.324Z,15.40
2022-09-20T10:12:07.311Z,15.80
2022-09-20T10:14:48.873Z,15.60
2022-09-20T10:17:38.308Z,15.70
2022-09-20T10:20:28.717Z,15.80
2022-09-20T10:23:34.432Z,15.60
2022-09-20T10:25:56.292Z,15.50
2022-09-20T10:28:48.677Z,15.40
2022-09-20T10:31:29.198Z,15.40
2022-09-20T10:33:56.222Z,15.40
2022-09-20T10:36:56.011Z,15.30
2022-09-20T10:39:33.395Z,15.30
2022-09-20T10:42:24.873Z,17.80
2022-09-20T10:45:36.339Z,15.50
2022-09-20T10:48:09.058Z,15.70
2022-09-20T10:50:48.761Z,15.80
2022-09-20T10:53:43.334Z,16.10
2022-09-20T10:56:16.104Z,15.80
2022-09-20T10:58:49.182Z,15.70
2022-09-20T11:01:24.266Z,16.60
2022-09-20T11:04:02.985Z,15.60
2022-09-20T11:06:57.682Z,15.60
2022-09-20T11:09:27.262Z,15.60
2022-09-20T11:12:09.828Z,15.70
2022-09-20T11:14:41.314Z,15.80
2022-09-20T11:17:19.578Z,15.90
2022-09-20T11:20:08.431Z,15.90
2022-09-20T11:22:40.904Z,16.00
2022-09-20T11:25:24.007Z,16.00
2022-09-20T11:28:12.055Z,15.90
2022-09-20T11:30:50.313Z,15.70
2022-09-20T11:33:19.396Z,15.60
2022-09-20T11:35:46.791Z,15.70
2022-09-20T11:38:16.511Z,15.80
2022-09-20T11:40:47.265Z,15.40
2022-09-20T11:43:14.966Z,15.70
2022-09-20T11:45:42.844Z,15.70
2022-09-20T11:48:25.541Z,15.80
2022-09-20T11:50:52.430Z,15.50
2022-09-20T11:53:41.035Z,15.40
2022-09-20T11:56:20.444Z,15.40
2022-09-20T11:58:55.258Z,15.40
2022-09-20T12:01:34.787Z,15.40
2022-09-20T12:04:34.708Z,15.60
2022-09-20T12:07:18.415Z,15.50
2022-09-20T12:09:56.246Z,15.60
2022-09-20T12:12:35.173Z,15.70
2022-09-20T12:15:03.105Z,15.70
2022-09-20T12:17:48.396Z,15.70
2022-09-20T12:20:36.132Z,15.70
2022-09-20T12:23:37.706Z,15.90
2022-09-20T12:26:05.351Z,15.80
2022-09-20T12:28:41.738Z,15.90
2022-09-20T12:31:29.646Z,16.00
2022-09-20T12:33:59.479Z,16.10
2022-09-20T12:36:55.463Z,16.00
2022-09-20T12:39:33.454Z,16.00
2022-09-20T12:42:12.522Z,16.20
2022-09-20T12:45:05.444Z,16.20
2022-09-20T12:47:35.567Z,16.10
2022-09-20T12:50:33.752Z,16.60
2022-09-20T12:53:04.933Z,16.20
2022-09-20T12:55:52.981Z,17.00
2022-09-20T12:58:24.274Z,16.20
2022-09-20T13:00:59.645Z,16.20
2022-09-20T13:03:37.003Z,16.30
2022-09-20T13:06:06.944Z,16.40
2022-09-20T13:09:00.145Z,17.50
2022-09-20T13:11:27.458Z,16.30
2022-09-20T13:14:09.288Z,17.80
2022-09-20T13:16:53.941Z,16.30
2022-09-20T13:19:28.996Z,16.30
2022-09-20T13:22:04.570Z,16.30
2022-09-20T13:24:35.642Z,16.20
2022-09-20T13:27:06.541Z,16.20
2022-09-20T13:29:35.054Z,16.60
2022-09-20T13:32:26.791Z,16.30
2022-09-20T13:35:06.618Z,16.30
2022-09-20T13:37:33.742Z,16.30
2022-09-20T13:40:00.758Z,16.30
2022-09-20T13:42:29.997Z,16.30
2022-09-20T13:44:58.699Z,16.30
2022-09-20T13:47:30.079Z,16.20
2022-09-20T13:50:20.790Z,16.20
2022-09-20T13:52:50.002Z,16.30
2022-09-20T13:55:21.629Z,16.20
2022-09-20T13:57:48.687Z,16.20
2022-09-20T14:00:16.078Z,16.20
2022-09-20T14:02:42.970Z,16.20
2022-09-20T14:05:15.931Z,16.70
2022-09-20T14:07:46.340Z,16.50
2022-09-20T14:10:41.009Z,16.20
2022-09-20T14:13:08.326Z,16.20
2022-09-20T14:15:39.590Z,16.20
2022-09-20T14:18:07.140Z,16.80
2022-09-20T14:20:34.392Z,15.90
2022-09-20T14:23:01.359Z,16.90
2022-09-20T14:25:28.452Z,15.80
2022-09-20T14:28:16.618Z,15.70
2022-09-20T14:30:43.523Z,17.50
2022-09-20T14:33:16.683Z,15.60
2022-09-20T14:35:48.210Z,15.60
2022-09-20T14:38:15.115Z,15.80
2022-09-20T14:40:47.230Z,15.70
2022-09-20T14:43:23.359Z,15.80
2022-09-20T14:45:58.688Z,16.00
2022-09-20T14:48:25.484Z,16.70
2022-09-20T14:51:16.502Z,17.20
2022-09-20T14:53:44.180Z,14.10
2022-09-20T14:56:12.394Z,16.20
2022-09-20T14:59:22.690Z,16.10
2022-09-20T15:02:55.633Z,18.50
2022-09-20T15:05:27.359Z,16.10
2022-09-20T15:07:54.533Z,18.30
2022-09-20T15:10:22.203Z,16.40
2022-09-20T15:12:49.080Z,16.20
2022-09-20T15:15:17.583Z,16.20
2022-09-20T15:17:45.167Z,16.20
2022-09-20T15:20:23.195Z,16.20
2022-09-20T15:22:50.967Z,16.20
2022-09-20T15:25:20.883Z,16.20
2022-09-20T15:27:47.965Z,16.80
2022-09-20T15:30:16.455Z,16.80
2022-09-20T15:32:44.506Z,17.40
2022-09-20T15:35:11.869Z,18.10
2022-09-20T15:37:38.831Z,18.20
2022-09-20T15:40:06.829Z,18.50
2022-09-20T15:42:37.940Z,18.60
2022-09-20T15:45:09.086Z,18.60
2022-09-20T15:47:39.425Z,17.90
2022-09-20T15:50:08.523Z,17.40
2022-09-20T15:52:39.891Z,17.00
2022-09-20T15:55:07.450Z,16.60
2022-09-20T15:57:34.509Z,16.30
2022-09-20T16:00:01.573Z,16.00
2022-09-20T16:02:35.270Z,15.80
2022-09-20T16:05:02.146Z,15.70
2022-09-20T16:07:29.005Z,15.60
2022-09-20T16:09:56.227Z,15.40
2022-09-20T16:12:24.300Z,15.30
2022-09-20T16:14:51.219Z,15.10
2022-09-20T16:17:18.143Z,15.00
2022-09-20T16:19:48.110Z,14.90
2022-09-20T16:22:15.896Z,14.70
2022-09-20T16:24:42.741Z,14.60
2022-09-20T16:27:09.772Z,14.50
2022-09-20T16:29:36.716Z,14.60
2022-09-20T16:32:04.137Z,14.30
2022-09-20T16:34:32.890Z,14.20
2022-09-20T16:37:00.645Z,14.10
2022-09-20T16:39:27.907Z,14.00
2022-09-20T16:41:57.274Z,13.90
2022-09-20T16:44:24.373Z,13.90
2022-09-20T16:46:51.408Z,13.80
2022-09-20T16:49:18.291Z,13.60
2022-09-20T16:51:46.373Z,13.50
2022-09-20T16:54:16.634Z,13.20
2022-09-20T16:56:45.326Z,12.90
2022-09-20T16:59:12.786Z,12.80
2022-09-20T17:01:40.107Z,12.60
2022-09-20T17:04:07.386Z,12.40
2022-09-20T17:06:35.539Z,12.30
2022-09-20T17:09:03.063Z,12.10
2022-09-20T17:11:31.805Z,12.00
2022-09-20T17:13:58.814Z,11.90
2022-09-20T17:16:30.917Z,11.70
2022-09-20T17:18:59.368Z,11.60
2022-09-20T17:21:26.683Z,11.50
2022-09-20T17:23:56.449Z,11.30
2022-09-20T17:26:33.195Z,11.20
2022-09-20T17:29:04.159Z,11.10
2022-09-20T17:31:33.672Z,11.10
2022-09-20T17:34:02.199Z,11.90
2022-09-20T17:36:30.577Z,11.70
2022-09-20T17:39:03.006Z,11.00
2022-09-20T17:41:30.880Z,10.60
2022-09-20T17:43:58.892Z,10.50
2022-09-20T17:46:32.466Z,10.50
2022-09-20T17:49:01.246Z,10.40
2022-09-20T17:51:47.427Z,10.90
2022-09-20T17:54:14.556Z,10.40
2022-09-20T17:56:46.390Z,10.60
2022-09-20T17:59:15.677Z,11.80
2022-09-20T18:01:42.834Z,11.40
2022-09-20T18:04:10.141Z,12.10
2022-09-20T18:06:38.696Z,11.30
2022-09-20T18:09:07.525Z,11.50
2022-09-20T18:11:36.394Z,12.60
2022-09-20T18:14:03.779Z,9.80
2022-09-20T18:16:35.029Z,11.70
2022-09-20T18:19:02.029Z,9.70
2022-09-20T18:21:30.281Z,11.50
2022-09-20T18:24:00.985Z,12.40
2022-09-20T18:26:30.110Z,10.60
2022-09-20T18:29:13.479Z,11.30
2022-09-20T18:31:43.169Z,9.80
2022-09-20T18:34:18.011Z,12.10
2022-09-20T18:36:48.491Z,9.30
2022-09-20T18:39:15.356Z,11.50
2022-09-20T18:41:44.005Z,12.00
2022-09-20T18:44:12.458Z,10.70
2022-09-20T18:46:40.682Z,9.10
2022-09-20T18:49:09.762Z,9.90
2022-09-20T18:51:39.704Z,10.10
2022-09-20T18:54:10.252Z,11.00
2022-09-20T18:56:41.278Z,10.90
2022-09-20T18:59:15.780Z,9.00
2022-09-20T19:01:55.107Z,9.10
2022-09-20T19:04:37.217Z,9.10
2022-09-20T19:07:22.059Z,9.10
2022-09-20T19:09:50.117Z,9.10
2022-09-20T19:12:48.346Z,11.60
2022-09-20T19:15:41.052Z,9.20
2022-09-20T19:18:30.743Z,9.20
2022-09-20T19:21:31.291Z,9.30
2022-09-20T19:24:19.322Z,9.30
2022-09-20T19:26:46.447Z,9.40
2022-09-20T19:29:25.231Z,9.50
2022-09-20T19:31:56.744Z,9.60
2022-09-20T19:35:15.381Z,9.60
2022-09-20T19:38:04.711Z,9.70
2022-09-20T19:41:00.601Z,9.80
2022-09-20T19:43:47.768Z,9.80
2022-09-20T19:46:36.734Z,11.20
2022-09-20T19:49:08.034Z,9.90
2022-09-20T19:51:37.102Z,9.90
2022-09-20T19:54:04.590Z,12.40
2022-09-20T19:56:36.395Z,10.00
2022-09-20T19:59:03.422Z,11.60
2022-09-20T20:01:31.332Z,10.10
2022-09-20T20:03:58.866Z,10.10
2022-09-20T20:06:28.847Z,10.10
2022-09-20T20:09:04.019Z,10.30
2022-09-20T20:15:54.195Z,10.10
2022-09-20T20:18:38.877Z,10.10
2022-09-20T20:21:11.720Z,10.10
2022-09-20T20:23:41.379Z,12.50
2022-09-20T20:26:21.490Z,10.10
2022-09-20T20:28:48.497Z,10.10
2022-09-20T20:31:15.357Z,12.10
2022-09-20T20:33:43.363Z,10.30
2022-09-20T20:36:11.852Z,11.60
2022-09-20T20:38:41.973Z,11.20
2022-09-20T20:41:14.084Z,10.00
2022-09-20T20:43:42.157Z,12.10
2022-09-20T20:46:10.676Z,12.70
2022-09-20T20:48:37.554Z,12.60
2022-09-20T20:51:17.394Z,9.80
2022-09-20T20:53:46.993Z,9.80
2022-09-20T20:56:15.857Z,11.50
2022-09-20T20:58:43.349Z,11.60
2022-09-20T21:01:10.240Z,11.90
2022-09-20T21:03:37.224Z,11.20
2022-09-20T21:06:07.333Z,11.90
2022-09-20T21:08:35.342Z,9.70
2022-09-20T21:11:03.405Z,10.50
2022-09-20T21:13:30.171Z,11.40
2022-09-20T21:16:04.831Z,11.80
2022-09-20T21:18:32.544Z,11.50
2022-09-20T21:20:59.761Z,11.80
2022-09-20T21:23:26.857Z,10.80
2022-09-20T21:26:10.858Z,11.60
2022-09-20T21:28:38.896Z,9.70
2022-09-20T21:31:06.383Z,11.50
2022-09-20T21:33:34.426Z,12.30
2022-09-20T21:36:01.799Z,12.30
2022-09-20T21:38:29.127Z,9.80
2022-09-20T21:41:05.974Z,11.90
2022-09-20T21:43:33.117Z,9.80
2022-09-20T21:45:59.965Z,10.90
2022-09-20T21:48:27.119Z,12.20
2022-09-20T21:51:02.181Z,12.10
2022-09-20T21:53:29.739Z,9.80
2022-09-20T21:55:58.461Z,11.50
2022-09-20T21:58:25.604Z,11.60
2022-09-20T22:01:03.239Z,11.30
2022-09-20T22:03:37.041Z,9.80
2022-09-20T22:06:08.763Z,9.80
2022-09-20T22:08:37.643Z,9.80
2022-09-20T22:11:04.642Z,11.80
2022-09-20T22:13:31.593Z,9.80
2022-09-20T22:16:08.675Z,9.80
2022-09-20T22:18:38.311Z,9.80
2022-09-20T22:21:11.185Z,11.00
2022-09-20T22:23:38.068Z,10.80
2022-09-20T22:26:15.933Z,12.40
2022-09-20T22:28:42.791Z,12.10
2022-09-20T22:31:14.023Z,10.80
2022-09-20T22:33:45.461Z,11.20
2022-09-20T22:36:14.235Z,9.70
2022-09-20T22:38:44.411Z,10.40
2022-09-20T22:41:11.715Z,9.60
2022-09-20T22:43:38.938Z,9.60
2022-09-20T22:46:07.593Z,11.30
2022-09-20T22:48:35.040Z,11.90
2022-09-20T22:51:06.870Z,9.60
2022-09-20T22:53:34.365Z,9.50
2022-09-20T22:56:11.866Z,11.80
2022-09-20T22:58:40.943Z,9.60
2022-09-20T23:01:18.819Z,10.80
2022-09-20T23:03:47.051Z,11.90
2022-09-20T23:06:15.554Z,10.90
2022-09-20T23:08:42.417Z,10.70
2022-09-20T23:11:09.334Z,11.80
2022-09-20T23:13:36.193Z,12.10
2022-09-20T23:16:14.047Z,11.00
2022-09-20T23:18:40.980Z,9.60
2022-09-20T23:21:07.758Z,11.60
2022-09-20T23:23:34.843Z,9.60
2022-09-20T23:26:16.079Z,9.60
2022-09-20T23:28:47.595Z,9.60
2022-09-20T23:31:16.038Z,9.60
2022-09-20T23:33:54.157Z,10.30
2022-09-20T23:36:21.260Z,11.80
2022-09-20T23:38:48.128Z,10.80
2022-09-20T23:41:16.692Z,11.40
2022-09-20T23:43:43.589Z,11.70
2022-09-20T23:46:11.595Z,9.50
2022-09-20T23:48:38.944Z,9.50
2022-09-20T23:51:06.104Z,11.00
2022-09-20T23:53:32.962Z,9.50
2022-09-20T23:56:00.201Z,11.30
2022-09-20T23:58:27.090Z,10.20
